• Join FlightAware (Why Join?)
  • Login
  • US Flag 
06:00AM EDT


 

Airport Tracker/Info


-or-


 

Live Flight TrackerFlight Track Log ✈ C-FXDD ✈ 07-May-2013 ✈ CYQT - CYAV

Flight Track Log - Related Links

Times and Time Zones

All times are in EDT time to prevent confusion due to time zone crossing. See the C-FXDD flight status page for this flight to view local times or setup timezone preferences in your user account.

Time Position Orientation Groundspeed Altitude Reporting Facility
EDT Latitude Longitude Course Direction KTS MPH feet Rate Location/Type
03:26PM 48.9333 -88.3000 243° Southwest 150 173 8,000  Level Winnipeg Center
03:27PM 48.9167 -88.3500 243° Southwest 150 173 8,000  Level Winnipeg Center
03:28PM 48.9000 -88.4000 243° Southwest 150 173 8,000  Level Winnipeg Center
03:29PM 48.8667 -88.4333 213° Southwest 150 173 8,000  Level Winnipeg Center
03:30PM 48.8333 -88.5000 233° Southwest 150 173 8,000  Level Winnipeg Center
03:31PM 48.8000 -88.5333 213° Southwest 150 173 8,000  Level Winnipeg Center
03:32PM 48.7833 -88.5833 243° Southwest 150 173 8,000 -120 Level Winnipeg Center
03:33PM 48.7500 -88.6167 213° Southwest 150 173 7,800 -300 Descending Winnipeg Center
03:34PM 48.7167 -88.6667 225° Southwest 150 173 7,500 -300 Descending Winnipeg Center
03:35PM 48.6833 -88.7000 213° Southwest 150 173 7,200 -360 Descending Winnipeg Center
03:36PM 48.6500 -88.7500 225° Southwest 150 173 6,800 -420 Descending Winnipeg Center
03:37PM 48.6333 -88.8167 249° West 150 173 6,400 -360 Descending Winnipeg Center
03:38PM 48.6167 -88.8667 243° Southwest 150 173 6,100 -360 Descending Winnipeg Center
03:39PM 48.5833 -88.9000 213° Southwest 150 173 5,700 -480 Descending Winnipeg Center
03:40PM 48.5500 -88.9500 225° Southwest 150 173 5,200 -360 Descending Winnipeg Center
03:41PM 48.5333 -89.0000 243° Southwest 150 173 5,000 -120 Descending Winnipeg Center
03:42PM 48.5167 -89.0667 249° West 140 161 5,000  Level Winnipeg Center
03:43PM 48.5000 -89.0833 214° Southwest 130 150 5,000  Level Winnipeg Center
03:44PM 48.4833 -89.1333 243° Southwest 130 150 5,000  Level Winnipeg Center
03:45PM 48.4667 -89.2000 249° West 140 161 5,000  Level Winnipeg Center
03:46PM 48.4500 -89.2667 249° West 140 161 5,000  Level Winnipeg Center
03:47PM 48.4500 -89.3167 270° West 140 161 5,000  Level Winnipeg Center
03:48PM 48.4333 -89.3833 249° West 130 150 5,000 -180 Level Winnipeg Center
03:49PM 48.4167 -89.4000 214° Southwest 120 138 4,700 -420 Descending Winnipeg Center
03:50PM 48.4000 -89.4500 243° Southwest 120 138 4,200 -480 Descending Winnipeg Center
03:51PM 48.3833 -89.4833 233° Southwest 120 138 3,800 -540 Descending Winnipeg Center
03:52PM 48.3500 -89.4667 162° South 120 138 3,200 -420 Descending Winnipeg Center
03:53PM 48.3333 -89.4333 127° Southeast 120 138 3,000 -300 Descending Winnipeg Center
03:54PM 48.3333 -89.3833 90° East 110 127 2,700 -720 Descending Winnipeg Center
03:55PM 48.3500 -89.3333 63° Northeast 100 115 1,600 -900 Descending Winnipeg Center
03:56PM 48.3500 -89.3167 90° East 90 104 900 -480 Descending Winnipeg Center
03:57PM 48.3667 -89.2833 53° Northeast 80 92 700 -120 Descending Winnipeg Center
03:58PM 48.3667 -89.2833 53° Northeast 70 81 700  Level Winnipeg Center
04:00PM 48.3769 -89.3311 288° West  Level FlightAware Approximate
04:07PM 48.4495 -89.6123 292° West  Level Estimated
04:08PM 48.4576 -89.6536 286° West  Level FlightAware Approximate
04:09PM 48.4679 -89.6939 270° West  Level Estimated
04:10PM 48.4782 -89.7341 292° West  Level Estimated
04:11PM 48.4874 -89.7750 289° West  Level FlightAware Approximate
04:12PM 48.4965 -89.8159 289° West  Level FlightAware Approximate
04:13PM 48.5056 -89.8568 289° West  Level FlightAware Approximate
04:14PM 48.5147 -89.8978 289° West  Level FlightAware Approximate
04:15PM 48.5238 -89.9387 289° West  Level FlightAware Approximate
04:16PM 48.5328 -89.9797 288° West  Level FlightAware Approximate
04:17PM 48.5419 -90.0207 288° West  Level FlightAware Approximate
04:18PM 48.5509 -90.0617 288° West  Level FlightAware Approximate
04:19PM 48.5599 -90.1027 288° West  Level FlightAware Approximate
04:20PM 48.5701 -90.1431 291° West  Level Estimated
04:21PM 48.5806 -90.1833 291° West  Level FlightAware Approximate
04:22PM 48.5909 -90.2236 291° West  Level FlightAware Approximate
04:23PM 48.6013 -90.2639 291° West  Level FlightAware Approximate
04:24PM 48.6117 -90.3042 291° West  Level FlightAware Approximate
04:25PM 48.6220 -90.3446 291° West  Level FlightAware Approximate
04:26PM 48.6324 -90.3849 291° West  Level FlightAware Approximate
04:27PM 48.6427 -90.4253 291° West  Level FlightAware Approximate
04:28PM 48.6530 -90.4657 291° West  Level FlightAware Approximate
04:29PM 48.6633 -90.5061 291° West  Level FlightAware Approximate
04:30PM 48.6736 -90.5465 291° West  Level FlightAware Approximate
04:31PM 48.6838 -90.5869 291° West  Level FlightAware Approximate
04:32PM 48.6941 -90.6274 291° West  Level FlightAware Approximate
04:33PM 48.7043 -90.6678 291° West  Level FlightAware Approximate
04:34PM 48.7146 -90.7083 291° West  Level FlightAware Approximate
04:35PM 48.7248 -90.7488 291° West  Level FlightAware Approximate
04:36PM 48.7350 -90.7893 291° West  Level FlightAware Approximate
04:37PM 48.7452 -90.8299 291° West  Level FlightAware Approximate
04:38PM 48.7553 -90.8704 291° West  Level FlightAware Approximate
04:39PM 48.7655 -90.9110 291° West  Level FlightAware Approximate
04:40PM 48.7756 -90.9516 291° West  Level FlightAware Approximate
04:41PM 48.7857 -90.9922 291° West  Level FlightAware Approximate
04:42PM 48.7958 -91.0328 291° West  Level FlightAware Approximate
04:43PM 48.8059 -91.0734 291° West  Level FlightAware Approximate
04:44PM 48.8158 -91.1142 290° West  Level Estimated
04:45PM 48.8256 -91.1550 290° West  Level FlightAware Approximate
04:46PM 48.8355 -91.1958 290° West  Level FlightAware Approximate
04:47PM 48.8453 -91.2366 290° West  Level FlightAware Approximate
04:48PM 48.8551 -91.2774 290° West  Level FlightAware Approximate
04:49PM 48.8649 -91.3183 290° West  Level FlightAware Approximate
04:50PM 48.8747 -91.3591 290° West  Level FlightAware Approximate
04:51PM 48.8844 -91.4000 290° West  Level FlightAware Approximate
04:52PM 48.8942 -91.4409 290° West  Level FlightAware Approximate
04:53PM 48.9039 -91.4818 290° West  Level FlightAware Approximate
04:54PM 48.9136 -91.5228 290° West  Level FlightAware Approximate
04:55PM 48.9233 -91.5637 290° West  Level FlightAware Approximate
04:56PM 48.9330 -91.6047 290° West  Level FlightAware Approximate
04:57PM 48.9427 -91.6457 290° West  Level FlightAware Approximate
04:58PM 48.9524 -91.6866 290° West  Level FlightAware Approximate
04:59PM 48.9620 -91.7277 290° West  Level FlightAware Approximate
05:00PM 48.9716 -91.7687 290° West  Level FlightAware Approximate
05:01PM 48.9813 -91.8097 290° West  Level FlightAware Approximate
05:02PM 48.9908 -91.8508 290° West  Level FlightAware Approximate
05:03PM 49.0004 -91.8919 290° West  Level FlightAware Approximate
05:03PM 48.3667 -89.2500 289° West 100 115 1,400  Level Winnipeg Center
05:04PM 49.0100 -91.9329 290° West  Level FlightAware Approximate
05:04PM 48.3833 -89.2000 63° Northeast 120 138 2,300  Level Winnipeg Center
05:05PM 49.0196 -91.9740 290° West  Level FlightAware Approximate
05:05PM 48.4167 -89.2167 342° North 130 150 3,400  Level Winnipeg Center
05:06PM 49.0291 -92.0152 289° West  Level Estimated
05:06PM 48.4333 -89.2500 307° West 130 150 4,100  Level Winnipeg Center
05:07PM 49.0385 -92.0564 289° West  Level FlightAware Approximate
05:07PM 48.4667 -89.3000 315° West 130 150 4,900  Level Winnipeg Center
05:08PM 49.0479 -92.0976 289° West  Level FlightAware Approximate
05:08PM 48.4667 -89.3500 270° West 120 138 5,900  Level Winnipeg Center
05:09PM 48.4833 -89.4000 297° West 120 138 6,700 900 Climbing Winnipeg Center
05:10PM 48.4833 -89.4500 270° West 120 138 7,700 660 Climbing Winnipeg Center
05:11PM 48.5000 -89.4833 307° West 140 161 8,100 180 Climbing Winnipeg Center
05:12PM 48.5167 -89.5333 297° West 150 173 8,100  Level Winnipeg Center
05:13PM 48.5333 -89.6167 287° West 150 173 8,100  Level Winnipeg Center
05:14PM 48.5500 -89.6667 297° West 150 173 8,100  Level Winnipeg Center
05:15PM 48.5500 -89.7333 270° West 150 173 8,100  Level Winnipeg Center
05:16PM 48.5833 -89.7833 315° West 150 173 8,100  Level Winnipeg Center
05:17PM 48.5833 -89.8333 270° West 150 173 8,100  Level Winnipeg Center
05:18PM 48.6000 -89.9000 291° West 150 173 8,100  Level Winnipeg Center
05:19PM 48.6167 -89.9500 297° West 150 173 8,100  Level Winnipeg Center
05:20PM 48.6333 -90.0333 287° West 150 173 8,100  Level Winnipeg Center
05:21PM 48.6500 -90.0833 297° West 150 173 8,100  Level Winnipeg Center
05:22PM 48.6667 -90.1500 291° West 150 173 8,200  Climbing Winnipeg Center
05:23PM 48.6833 -90.2000 297° West 150 173 8,200  Level Winnipeg Center
05:24PM 48.6833 -90.2500 270° West 150 173 8,200  Level Winnipeg Center
05:25PM 48.7167 -90.3167 307° West 160 184 8,200  Level Winnipeg Center
05:26PM 48.7333 -90.3667 297° West 150 173 8,200 -60 Level Winnipeg Center
05:27PM 48.7333 -90.4500 270° West 150 173 8,100  Descending Winnipeg Center
05:28PM 48.7500 -90.5000 297° West 150 173 8,200  Climbing Winnipeg Center
05:29PM 48.7833 -90.5667 307° West 150 173 8,200 -60 Level Winnipeg Center
05:30PM 48.7833 -90.6167 270° West 150 173 8,100  Descending Winnipeg Center
05:31PM 48.8000 -90.7000 287° West 150 173 8,200  Climbing Winnipeg Center
05:32PM 48.8000 -90.7500 270° West 150 173 8,200  Level Winnipeg Center
05:33PM 48.8167 -90.8167 291° West 150 173 8,200  Level Winnipeg Center
05:34PM 48.8500 -90.8667 315° West 150 173 8,200  Level Winnipeg Center
05:35PM 48.8500 -90.9167 270° West 150 173 8,200 -60 Level Winnipeg Center
05:36PM 48.8667 -90.9833 291° West 150 173 8,100 -60 Descending Winnipeg Center
05:37PM 48.8667 -91.0333 270° West 150 173 8,100  Level Winnipeg Center
05:38PM 48.8833 -91.1167 287° West 150 173 8,100 -60 Level Winnipeg Center
05:39PM 48.9000 -91.1667 297° West 150 173 8,000 -60 Descending Winnipeg Center
05:40PM 48.9167 -91.2333 291° West 150 173 8,000  Level Winnipeg Center
05:41PM 48.9333 -91.2833 297° West 150 173 8,000  Level Winnipeg Center
05:42PM 48.9500 -91.3333 297° West 150 173 8,000  Level Winnipeg Center
05:43PM 48.9500 -91.4167 270° West 150 173 8,000  Level Winnipeg Center
05:44PM 48.9667 -91.4667 297° West 150 173 8,000  Level Winnipeg Center
05:45PM 49.0000 -91.5333 307° West 150 173 8,000  Level Winnipeg Center
05:46PM 49.0000 -91.5833 270° West 150 173 8,000  Level Winnipeg Center
05:47PM 49.0167 -91.6667 287° West 150 173 8,000  Level Winnipeg Center
05:48PM 49.0167 -91.7167 270° West 150 173 8,000  Level Winnipeg Center
05:49PM 49.0333 -91.7667 297° West 150 173 8,000  Level Winnipeg Center
05:50PM 49.0500 -91.8333 291° West 150 173 8,000  Level Winnipeg Center
05:51PM 49.0667 -91.8833 297° West 150 173 8,000  Level Winnipeg Center
05:52PM 49.0833 -91.9667 287° West 150 173 8,000  Level Winnipeg Center
05:53PM 49.0833 -92.0167 270° West 150 173 8,000  Level Winnipeg Center
05:54PM 49.1000 -92.0833 291° West 150 173 8,000  Level Winnipeg Center
05:55PM 49.1167 -92.1333 297° West 150 173 8,000  Level Winnipeg Center
05:56PM 49.1333 -92.2167 287° West 150 173 8,100  Climbing Winnipeg Center
05:57PM 49.1500 -92.2667 297° West 150 173 8,000 -60 Descending Winnipeg Center
05:58PM 49.1667 -92.3333 291° West 150 173 8,000  Level Winnipeg Center
05:59PM 49.1667 -92.3833 270° West 150 173 8,000  Level Winnipeg Center
06:00PM 49.1833 -92.4667 287° West 150 173 8,000  Level Winnipeg Center
06:01PM 49.1833 -92.5167 270° West 150 173 8,000  Level Winnipeg Center
06:02PM 49.2000 -92.5833 291° West 150 173 8,000  Level Winnipeg Center
06:03PM 49.2333 -92.6333 316° Northwest 150 173 8,000  Level Winnipeg Center
06:04PM 49.2500 -92.6833 297° West 150 173 8,000  Level Winnipeg Center
06:05PM 49.2667 -92.7667 287° West 150 173 8,000  Level Winnipeg Center
06:06PM 49.2667 -92.8167 270° West 150 173 8,000  Level Winnipeg Center
06:07PM 49.2833 -92.8833 291° West 150 173 8,000  Level Winnipeg Center
06:08PM 49.3000 -92.9333 297° West 150 173 8,100  Climbing Winnipeg Center
06:09PM 49.3167 -92.9833 297° West 150 173 8,100 -60 Level Winnipeg Center
06:10PM 49.3333 -93.0667 287° West 150 173 8,000 -60 Descending Winnipeg Center
06:11PM 49.3500 -93.1167 297° West 150 173 8,000  Level Winnipeg Center
06:12PM 49.3500 -93.1833 270° West 150 173 8,000  Level Winnipeg Center
06:13PM 49.3667 -93.2333 297° West 150 173 8,000  Level Winnipeg Center
06:14PM 49.3833 -93.3167 287° West 150 173 8,000  Level Winnipeg Center
06:15PM 49.3833 -93.3667 270° West 150 173 8,000  Level Winnipeg Center
06:16PM 49.4000 -93.4500 287° West 150 173 8,000  Level Winnipeg Center
06:17PM 49.4000 -93.5000 270° West 150 173 8,000  Level Winnipeg Center
06:18PM 49.4333 -93.5667 308° West 150 173 8,000  Level Winnipeg Center
06:19PM 49.4500 -93.6167 297° West 150 173 8,000  Level Winnipeg Center
06:20PM 49.4500 -93.6667 270° West 150 173 8,000  Level Winnipeg Center
06:21PM 49.4667 -93.7500 287° West 160 184 8,000  Level Winnipeg Center
06:22PM 49.4667 -93.8000 270° West 150 173 8,000  Level Winnipeg Center
06:23PM 49.4833 -93.8833 287° West 150 173 8,000  Level Winnipeg Center
06:24PM 49.5000 -93.9333 297° West 150 173 8,000  Level Winnipeg Center
06:25PM 49.5000 -94.0000 270° West 150 173 8,000  Level Winnipeg Center
06:26PM 49.5167 -94.0500 297° West 150 173 8,000  Level Winnipeg Center
06:27PM 49.5500 -94.1333 302° West 150 173 8,000  Level Winnipeg Center
06:28PM 49.5500 -94.1833 270° West 150 173 8,000  Level Winnipeg Center
06:29PM 49.5667 -94.2500 291° West 150 173 8,000  Level Winnipeg Center
06:30PM 49.5667 -94.3167 270° West 150 173 8,000  Level Winnipeg Center
06:31PM 49.5833 -94.3667 297° West 150 173 8,000  Level Winnipeg Center
06:32PM 49.5833 -94.4333 270° West 150 173 8,000  Level Winnipeg Center
06:33PM 49.6000 -94.4833 297° West 150 173 8,000  Level Winnipeg Center
06:34PM 49.6167 -94.5667 287° West 150 173 8,000  Level Winnipeg Center
06:35PM 49.6167 -94.6167 270° West 150 173 8,000  Level Winnipeg Center
06:36PM 49.6333 -94.6667 297° West 150 173 8,000  Level Winnipeg Center
06:37PM 49.6333 -94.7500 270° West 150 173 8,000  Level Winnipeg Center
06:38PM 49.6500 -94.8000 297° West 150 173 8,000  Level Winnipeg Center
06:39PM 49.6833 -94.8667 308° West 150 173 8,000  Level Winnipeg Center
06:40PM 49.6833 -94.9167 270° West 150 173 8,000  Level Winnipeg Center
06:41PM 49.7000 -95.0000 287° West 150 173 8,000  Level Winnipeg Center
06:42PM 49.7167 -95.0500 297° West 150 173 8,000  Level Winnipeg Center
06:43PM 49.7167 -95.1000 270° West 150 173 8,000  Level Winnipeg Center
06:44PM 49.7333 -95.1833 287° West 150 173 8,000  Level Winnipeg Center
06:45PM 49.7333 -95.2500 270° West 150 173 8,000  Level Winnipeg Center
06:46PM 49.7500 -95.3167 291° West 150 173 8,000  Level Winnipeg Center
06:47PM 49.7667 -95.3667 297° West 150 173 8,000  Level Winnipeg Center
06:48PM 49.7667 -95.4333 270° West 150 173 8,000  Level Winnipeg Center
06:49PM 49.7833 -95.4833 297° West 150 173 8,000  Level Winnipeg Center
06:50PM 49.7833 -95.5333 270° West 150 173 8,000 -60 Level Winnipeg Center
06:51PM 49.8000 -95.6167 287° West 150 173 7,900 -60 Descending Winnipeg Center
06:52PM 49.8000 -95.6667 270° West 150 173 7,900  Level Winnipeg Center
06:53PM 49.8167 -95.7500 287° West 150 173 7,900  Level Winnipeg Center
06:54PM 49.8333 -95.8000 297° West 150 173 7,900  Level Winnipeg Center
06:55PM 49.8333 -95.8833 270° West 150 173 7,900  Level Winnipeg Center
06:56PM 49.8500 -95.9333 297° West 150 173 7,900  Level Winnipeg Center
06:57PM 49.8667 -96.0000 291° West 150 173 7,900  Level Winnipeg Center
06:58PM 49.8833 -96.0500 297° West 150 173 7,900  Level Winnipeg Center
06:59PM 49.9000 -96.1167 291° West 150 173 7,900 -60 Level Winnipeg Center
07:00PM 49.9167 -96.1833 291° West 150 173 7,800 -300 Descending Winnipeg Center
07:01PM 49.9167 -96.2333 270° West 150 173 7,300 -540 Descending Winnipeg Center
07:02PM 49.9333 -96.3167 287° West 160 184 6,800 -480 Descending Winnipeg Center
07:03PM 49.9333 -96.3667 270° West 160 184 6,400 -540 Descending Winnipeg Center
07:04PM 49.9500 -96.4500 287° West 160 184 5,800 -420 Descending Winnipeg Center
07:05PM 49.9667 -96.5000 297° West 150 173 5,600 -360 Descending Winnipeg Center
07:06PM 49.9667 -96.5833 270° West 160 184 5,100 -540 Descending Winnipeg Center
07:07PM 49.9833 -96.6333 297° West 150 173 4,600 -480 Descending Winnipeg Center
07:08PM 50.0000 -96.7000 291° West 150 173 4,200 -600 Descending Winnipeg Center
07:09PM 50.0000 -96.7500 270° West 160 184 3,500 -600 Descending Winnipeg Center
07:10PM 50.0167 -96.8333 287° West 160 184 3,000 -600 Descending Winnipeg Center
07:11PM 50.0333 -96.8833 297° West 160 184 2,300 -420 Descending Winnipeg Center
07:12PM 50.0500 -96.9333 297° West 110 127 2,200 -420 Descending Winnipeg Center
07:13PM 50.0500 -97.0000 270° West 100 115 1,500 -660 Descending Winnipeg Center
07:14PM 50.0500 -97.0167 270° West 80 92 900 -600 Descending Winnipeg Center